sensor_id;sensor_type;location;lat;lon;timestamp;P1;durP1;ratioP1;P2;durP2;ratioP2
62696;SDS011;48761;42.680;23.312;2023-06-10T00:01:03;9.57;;;8.23;;
62696;SDS011;48761;42.680;23.312;2023-06-10T00:03:29;15.25;;;10.45;;
62696;SDS011;48761;42.680;23.312;2023-06-10T00:05:55;13.45;;;10.02;;
62696;SDS011;48761;42.680;23.312;2023-06-10T00:08:21;12.23;;;7.57;;
62696;SDS011;48761;42.680;23.312;2023-06-10T00:10:47;10.10;;;7.50;;
62696;SDS011;48761;42.680;23.312;2023-06-10T00:13:13;15.90;;;9.70;;
62696;SDS011;48761;42.680;23.312;2023-06-10T00:15:39;15.20;;;12.48;;
62696;SDS011;48761;42.680;23.312;2023-06-10T00:18:05;17.77;;;11.77;;
62696;SDS011;48761;42.680;23.312;2023-06-10T00:20:31;16.25;;;10.32;;
62696;SDS011;48761;42.680;23.312;2023-06-10T00:23:00;14.18;;;9.93;;
62696;SDS011;48761;42.680;23.312;2023-06-10T00:25:26;13.50;;;9.20;;
62696;SDS011;48761;42.680;23.312;2023-06-10T00:27:52;11.35;;;7.80;;
62696;SDS011;48761;42.680;23.312;2023-06-10T00:30:18;8.43;;;6.80;;
62696;SDS011;48761;42.680;23.312;2023-06-10T00:32:44;12.23;;;6.53;;
62696;SDS011;48761;42.680;23.312;2023-06-10T00:35:10;7.43;;;5.53;;
62696;SDS011;48761;42.680;23.312;2023-06-10T00:37:36;7.40;;;5.53;;
62696;SDS011;48761;42.680;23.312;2023-06-10T00:40:02;11.95;;;6.13;;
62696;SDS011;48761;42.680;23.312;2023-06-10T00:42:30;6.00;;;5.28;;
62696;SDS011;48761;42.680;23.312;2023-06-10T00:44:56;7.97;;;5.55;;
62696;SDS011;48761;42.680;23.312;2023-06-10T00:47:22;7.35;;;5.38;;
62696;SDS011;48761;42.680;23.312;2023-06-10T00:49:51;9.02;;;6.28;;
62696;SDS011;48761;42.680;23.312;2023-06-10T00:52:18;10.52;;;5.55;;
62696;SDS011;48761;42.680;23.312;2023-06-10T00:54:47;9.27;;;5.43;;
62696;SDS011;48761;42.680;23.312;2023-06-10T00:57:13;10.77;;;6.20;;
62696;SDS011;48761;42.680;23.312;2023-06-10T00:59:40;9.13;;;5.93;;
62696;SDS011;48761;42.680;23.312;2023-06-10T01:02:08;10.35;;;6.03;;
62696;SDS011;48761;42.680;23.312;2023-06-10T01:04:34;12.07;;;5.95;;
62696;SDS011;48761;42.680;23.312;2023-06-10T01:09:32;8.02;;;6.07;;
62696;SDS011;48761;42.680;23.312;2023-06-10T01:14:57;8.35;;;6.65;;
62696;SDS011;48761;42.680;23.312;2023-06-10T01:17:24;9.55;;;7.00;;
62696;SDS011;48761;42.680;23.312;2023-06-10T01:19:54;9.98;;;6.60;;
62696;SDS011;48761;42.680;23.312;2023-06-10T01:22:21;10.15;;;7.13;;
62696;SDS011;48761;42.680;23.312;2023-06-10T01:24:48;8.50;;;6.95;;
62696;SDS011;48761;42.680;23.312;2023-06-10T01:27:14;10.43;;;7.05;;
62696;SDS011;48761;42.680;23.312;2023-06-10T01:29:50;14.60;;;9.57;;
62696;SDS011;48761;42.680;23.312;2023-06-10T01:32:28;13.05;;;8.23;;
62696;SDS011;48761;42.680;23.312;2023-06-10T01:34:59;8.85;;;6.95;;
62696;SDS011;48761;42.680;23.312;2023-06-10T01:37:27;10.75;;;7.47;;
62696;SDS011;48761;42.680;23.312;2023-06-10T01:39:55;12.80;;;8.45;;
62696;SDS011;48761;42.680;23.312;2023-06-10T01:42:23;10.88;;;7.85;;
62696;SDS011;48761;42.680;23.312;2023-06-10T01:44:50;13.13;;;7.05;;
62696;SDS011;48761;42.680;23.312;2023-06-10T01:47:17;10.40;;;7.25;;
62696;SDS011;48761;42.680;23.312;2023-06-10T01:49:42;9.38;;;6.95;;
62696;SDS011;48761;42.680;23.312;2023-06-10T01:52:08;12.63;;;7.07;;
62696;SDS011;48761;42.680;23.312;2023-06-10T01:54:36;11.48;;;6.68;;
62696;SDS011;48761;42.680;23.312;2023-06-10T01:57:02;10.45;;;7.10;;
62696;SDS011;48761;42.680;23.312;2023-06-10T01:59:28;8.25;;;6.43;;
62696;SDS011;48761;42.680;23.312;2023-06-10T02:01:54;10.32;;;6.80;;
62696;SDS011;48761;42.680;23.312;2023-06-10T02:04:20;9.05;;;7.32;;
62696;SDS011;48761;42.680;23.312;2023-06-10T02:06:46;11.02;;;7.18;;
62696;SDS011;48761;42.680;23.312;2023-06-10T02:09:12;11.63;;;6.93;;
62696;SDS011;48761;42.680;23.312;2023-06-10T02:11:38;10.45;;;6.63;;
62696;SDS011;48761;42.680;23.312;2023-06-10T02:14:03;9.65;;;7.07;;
62696;SDS011;48761;42.680;23.312;2023-06-10T02:16:29;10.02;;;6.80;;
62696;SDS011;48761;42.680;23.312;2023-06-10T02:18:55;12.77;;;6.70;;
62696;SDS011;48761;42.680;23.312;2023-06-10T02:21:21;9.55;;;7.00;;
62696;SDS011;48761;42.680;23.312;2023-06-10T02:23:47;11.18;;;7.22;;
62696;SDS011;48761;42.680;23.312;2023-06-10T02:26:13;8.25;;;6.35;;
62696;SDS011;48761;42.680;23.312;2023-06-10T02:28:42;8.00;;;6.07;;
62696;SDS011;48761;42.680;23.312;2023-06-10T02:31:08;9.40;;;6.47;;
62696;SDS011;48761;42.680;23.312;2023-06-10T02:33:34;8.88;;;6.32;;
62696;SDS011;48761;42.680;23.312;2023-06-10T02:36:00;8.52;;;6.53;;
62696;SDS011;48761;42.680;23.312;2023-06-10T02:38:26;11.50;;;6.78;;
62696;SDS011;48761;42.680;23.312;2023-06-10T02:40:52;11.18;;;6.65;;
62696;SDS011;48761;42.680;23.312;2023-06-10T02:43:17;13.13;;;7.05;;
62696;SDS011;48761;42.680;23.312;2023-06-10T02:45:43;10.18;;;7.13;;
62696;SDS011;48761;42.680;23.312;2023-06-10T02:48:09;9.57;;;7.03;;
62696;SDS011;48761;42.680;23.312;2023-06-10T02:50:35;13.30;;;6.97;;
62696;SDS011;48761;42.680;23.312;2023-06-10T02:53:01;8.82;;;6.90;;
62696;SDS011;48761;42.680;23.312;2023-06-10T02:55:27;11.90;;;7.45;;
62696;SDS011;48761;42.680;23.312;2023-06-10T02:57:53;9.77;;;6.93;;
62696;SDS011;48761;42.680;23.312;2023-06-10T03:00:19;10.85;;;6.40;;
62696;SDS011;48761;42.680;23.312;2023-06-10T03:02:45;9.85;;;7.65;;
62696;SDS011;48761;42.680;23.312;2023-06-10T03:05:11;12.38;;;7.47;;
62696;SDS011;48761;42.680;23.312;2023-06-10T03:07:37;10.30;;;7.60;;
62696;SDS011;48761;42.680;23.312;2023-06-10T03:10:04;11.57;;;8.10;;
62696;SDS011;48761;42.680;23.312;2023-06-10T03:12:31;11.57;;;7.78;;
62696;SDS011;48761;42.680;23.312;2023-06-10T03:14:57;11.88;;;8.32;;
62696;SDS011;48761;42.680;23.312;2023-06-10T03:17:23;10.85;;;7.75;;
62696;SDS011;48761;42.680;23.312;2023-06-10T03:19:50;13.23;;;9.00;;
62696;SDS011;48761;42.680;23.312;2023-06-10T03:22:16;12.07;;;7.90;;
62696;SDS011;48761;42.680;23.312;2023-06-10T03:24:42;18.38;;;12.75;;
62696;SDS011;48761;42.680;23.312;2023-06-10T03:27:08;18.52;;;10.20;;
62696;SDS011;48761;42.680;23.312;2023-06-10T03:29:35;9.90;;;7.75;;
62696;SDS011;48761;42.680;23.312;2023-06-10T03:32:01;12.13;;;8.45;;
62696;SDS011;48761;42.680;23.312;2023-06-10T03:34:27;22.77;;;15.13;;
62696;SDS011;48761;42.680;23.312;2023-06-10T03:36:53;13.75;;;9.25;;
62696;SDS011;48761;42.680;23.312;2023-06-10T03:39:19;12.85;;;8.63;;
62696;SDS011;48761;42.680;23.312;2023-06-10T03:41:45;15.63;;;10.45;;
62696;SDS011;48761;42.680;23.312;2023-06-10T03:44:11;13.20;;;8.32;;
62696;SDS011;48761;42.680;23.312;2023-06-10T03:46:36;22.73;;;17.60;;
62696;SDS011;48761;42.680;23.312;2023-06-10T03:49:02;30.98;;;24.33;;
62696;SDS011;48761;42.680;23.312;2023-06-10T03:51:29;18.23;;;13.73;;
62696;SDS011;48761;42.680;23.312;2023-06-10T03:53:55;23.75;;;18.30;;
62696;SDS011;48761;42.680;23.312;2023-06-10T03:56:21;13.90;;;10.02;;
62696;SDS011;48761;42.680;23.312;2023-06-10T03:58:47;11.15;;;8.20;;
62696;SDS011;48761;42.680;23.312;2023-06-10T04:01:13;16.88;;;11.15;;
62696;SDS011;48761;42.680;23.312;2023-06-10T04:03:39;12.48;;;9.00;;
62696;SDS011;48761;42.680;23.312;2023-06-10T04:06:05;15.20;;;9.93;;
62696;SDS011;48761;42.680;23.312;2023-06-10T04:08:31;14.10;;;10.30;;
62696;SDS011;48761;42.680;23.312;2023-06-10T04:10:57;13.38;;;9.60;;
62696;SDS011;48761;42.680;23.312;2023-06-10T04:13:23;12.98;;;9.02;;
62696;SDS011;48761;42.680;23.312;2023-06-10T04:15:49;11.77;;;9.82;;
62696;SDS011;48761;42.680;23.312;2023-06-10T04:18:15;12.05;;;9.38;;
62696;SDS011;48761;42.680;23.312;2023-06-10T04:20:41;12.23;;;9.73;;
62696;SDS011;48761;42.680;23.312;2023-06-10T04:23:07;13.38;;;9.50;;
62696;SDS011;48761;42.680;23.312;2023-06-10T04:25:33;13.73;;;10.43;;
62696;SDS011;48761;42.680;23.312;2023-06-10T04:27:59;13.20;;;10.32;;
62696;SDS011;48761;42.680;23.312;2023-06-10T04:30:25;15.88;;;10.23;;
62696;SDS011;48761;42.680;23.312;2023-06-10T04:32:51;15.38;;;10.52;;
62696;SDS011;48761;42.680;23.312;2023-06-10T04:35:17;16.05;;;11.57;;
62696;SDS011;48761;42.680;23.312;2023-06-10T04:37:43;15.75;;;12.05;;
62696;SDS011;48761;42.680;23.312;2023-06-10T04:40:09;16.90;;;12.35;;
62696;SDS011;48761;42.680;23.312;2023-06-10T04:42:35;15.55;;;11.15;;
62696;SDS011;48761;42.680;23.312;2023-06-10T04:45:02;15.55;;;11.10;;
62696;SDS011;48761;42.680;23.312;2023-06-10T04:47:28;21.65;;;13.88;;
62696;SDS011;48761;42.680;23.312;2023-06-10T04:49:54;15.27;;;10.70;;
62696;SDS011;48761;42.680;23.312;2023-06-10T04:52:20;13.80;;;10.20;;
62696;SDS011;48761;42.680;23.312;2023-06-10T04:54:46;16.60;;;11.77;;
62696;SDS011;48761;42.680;23.312;2023-06-10T04:57:12;17.33;;;11.57;;
62696;SDS011;48761;42.680;23.312;2023-06-10T04:59:38;13.43;;;10.85;;
62696;SDS011;48761;42.680;23.312;2023-06-10T05:02:04;20.23;;;11.75;;
62696;SDS011;48761;42.680;23.312;2023-06-10T05:04:30;19.85;;;14.55;;
62696;SDS011;48761;42.680;23.312;2023-06-10T05:06:56;18.58;;;13.63;;
62696;SDS011;48761;42.680;23.312;2023-06-10T05:09:22;14.95;;;10.98;;
62696;SDS011;48761;42.680;23.312;2023-06-10T05:11:48;12.05;;;10.15;;
62696;SDS011;48761;42.680;23.312;2023-06-10T05:14:14;13.63;;;9.95;;
62696;SDS011;48761;42.680;23.312;2023-06-10T05:16:40;13.68;;;9.65;;
62696;SDS011;48761;42.680;23.312;2023-06-10T05:19:06;15.25;;;10.27;;
62696;SDS011;48761;42.680;23.312;2023-06-10T05:21:32;14.25;;;10.80;;
62696;SDS011;48761;42.680;23.312;2023-06-10T05:23:58;16.83;;;12.82;;
62696;SDS011;48761;42.680;23.312;2023-06-10T05:26:24;12.18;;;8.80;;
62696;SDS011;48761;42.680;23.312;2023-06-10T05:28:50;13.15;;;9.57;;
62696;SDS011;48761;42.680;23.312;2023-06-10T05:31:15;15.10;;;10.30;;
62696;SDS011;48761;42.680;23.312;2023-06-10T05:33:41;14.80;;;10.55;;
62696;SDS011;48761;42.680;23.312;2023-06-10T05:36:07;12.27;;;8.48;;
62696;SDS011;48761;42.680;23.312;2023-06-10T05:38:33;14.43;;;9.38;;
62696;SDS011;48761;42.680;23.312;2023-06-10T05:40:59;15.90;;;11.13;;
62696;SDS011;48761;42.680;23.312;2023-06-10T05:43:25;16.52;;;10.25;;
62696;SDS011;48761;42.680;23.312;2023-06-10T05:45:51;17.30;;;11.07;;
62696;SDS011;48761;42.680;23.312;2023-06-10T05:48:18;16.40;;;8.02;;
62696;SDS011;48761;42.680;23.312;2023-06-10T05:50:43;12.18;;;8.93;;
62696;SDS011;48761;42.680;23.312;2023-06-10T05:53:09;16.17;;;9.88;;
62696;SDS011;48761;42.680;23.312;2023-06-10T05:55:35;17.23;;;9.43;;
62696;SDS011;48761;42.680;23.312;2023-06-10T05:58:01;11.85;;;8.77;;
62696;SDS011;48761;42.680;23.312;2023-06-10T06:00:27;16.65;;;9.60;;
62696;SDS011;48761;42.680;23.312;2023-06-10T06:02:53;13.35;;;9.60;;
62696;SDS011;48761;42.680;23.312;2023-06-10T06:05:19;12.85;;;7.93;;
62696;SDS011;48761;42.680;23.312;2023-06-10T06:07:45;11.40;;;8.13;;
62696;SDS011;48761;42.680;23.312;2023-06-10T06:10:11;13.55;;;9.30;;
62696;SDS011;48761;42.680;23.312;2023-06-10T06:12:37;14.18;;;9.40;;
62696;SDS011;48761;42.680;23.312;2023-06-10T06:15:03;11.93;;;9.45;;
62696;SDS011;48761;42.680;23.312;2023-06-10T06:17:29;13.38;;;9.38;;
62696;SDS011;48761;42.680;23.312;2023-06-10T06:19:55;13.95;;;8.80;;
62696;SDS011;48761;42.680;23.312;2023-06-10T06:22:21;9.38;;;7.32;;
62696;SDS011;48761;42.680;23.312;2023-06-10T06:24:47;11.07;;;7.82;;
62696;SDS011;48761;42.680;23.312;2023-06-10T06:27:13;11.35;;;8.02;;
62696;SDS011;48761;42.680;23.312;2023-06-10T06:29:39;20.45;;;13.85;;
62696;SDS011;48761;42.680;23.312;2023-06-10T06:32:05;13.82;;;8.43;;
62696;SDS011;48761;42.680;23.312;2023-06-10T06:34:31;11.75;;;7.95;;
62696;SDS011;48761;42.680;23.312;2023-06-10T06:36:57;11.70;;;6.47;;
62696;SDS011;48761;42.680;23.312;2023-06-10T06:39:23;12.25;;;6.53;;
62696;SDS011;48761;42.680;23.312;2023-06-10T06:41:49;8.38;;;5.35;;
62696;SDS011;48761;42.680;23.312;2023-06-10T06:44:15;9.82;;;6.20;;
62696;SDS011;48761;42.680;23.312;2023-06-10T06:46:41;11.10;;;6.35;;
62696;SDS011;48761;42.680;23.312;2023-06-10T06:49:06;11.30;;;7.10;;
62696;SDS011;48761;42.680;23.312;2023-06-10T06:51:32;12.77;;;8.60;;
62696;SDS011;48761;42.680;23.312;2023-06-10T06:53:58;9.65;;;7.28;;
62696;SDS011;48761;42.680;23.312;2023-06-10T06:56:24;11.13;;;8.00;;
62696;SDS011;48761;42.680;23.312;2023-06-10T06:58:51;11.40;;;7.57;;
62696;SDS011;48761;42.680;23.312;2023-06-10T07:01:16;12.55;;;7.03;;
62696;SDS011;48761;42.680;23.312;2023-06-10T07:03:42;8.32;;;6.43;;
62696;SDS011;48761;42.680;23.312;2023-06-10T07:06:08;11.38;;;7.25;;
62696;SDS011;48761;42.680;23.312;2023-06-10T07:08:34;11.30;;;7.25;;
62696;SDS011;48761;42.680;23.312;2023-06-10T07:11:00;10.90;;;7.20;;
62696;SDS011;48761;42.680;23.312;2023-06-10T07:13:26;26.38;;;15.25;;
62696;SDS011;48761;42.680;23.312;2023-06-10T07:15:52;14.50;;;9.73;;
62696;SDS011;48761;42.680;23.312;2023-06-10T07:18:18;13.65;;;8.30;;
62696;SDS011;48761;42.680;23.312;2023-06-10T07:20:44;11.77;;;7.53;;
62696;SDS011;48761;42.680;23.312;2023-06-10T07:23:10;11.13;;;8.02;;
62696;SDS011;48761;42.680;23.312;2023-06-10T07:25:36;9.25;;;6.72;;
62696;SDS011;48761;42.680;23.312;2023-06-10T07:28:02;11.02;;;6.90;;
62696;SDS011;48761;42.680;23.312;2023-06-10T07:30:28;15.05;;;6.93;;
62696;SDS011;48761;42.680;23.312;2023-06-10T07:32:54;9.23;;;5.82;;
62696;SDS011;48761;42.680;23.312;2023-06-10T07:35:19;8.07;;;5.50;;
62696;SDS011;48761;42.680;23.312;2023-06-10T07:37:45;8.60;;;5.57;;
62696;SDS011;48761;42.680;23.312;2023-06-10T07:40:11;9.18;;;5.28;;
62696;SDS011;48761;42.680;23.312;2023-06-10T07:42:37;7.53;;;5.90;;
62696;SDS011;48761;42.680;23.312;2023-06-10T07:45:03;8.13;;;5.03;;
62696;SDS011;48761;42.680;23.312;2023-06-10T07:47:30;11.00;;;5.40;;
62696;SDS011;48761;42.680;23.312;2023-06-10T07:49:58;7.75;;;4.47;;
62696;SDS011;48761;42.680;23.312;2023-06-10T07:52:24;8.18;;;5.00;;
62696;SDS011;48761;42.680;23.312;2023-06-10T07:54:50;8.48;;;5.90;;
62696;SDS011;48761;42.680;23.312;2023-06-10T07:57:16;10.45;;;6.43;;
62696;SDS011;48761;42.680;23.312;2023-06-10T07:59:42;9.05;;;5.75;;
62696;SDS011;48761;42.680;23.312;2023-06-10T08:02:08;8.15;;;5.20;;
62696;SDS011;48761;42.680;23.312;2023-06-10T08:04:34;7.65;;;4.60;;
62696;SDS011;48761;42.680;23.312;2023-06-10T08:06:59;10.70;;;7.00;;
62696;SDS011;48761;42.680;23.312;2023-06-10T08:09:25;14.50;;;9.10;;
62696;SDS011;48761;42.680;23.312;2023-06-10T08:11:51;9.02;;;4.90;;
62696;SDS011;48761;42.680;23.312;2023-06-10T08:14:17;8.23;;;4.88;;
62696;SDS011;48761;42.680;23.312;2023-06-10T08:16:43;7.35;;;5.35;;
62696;SDS011;48761;42.680;23.312;2023-06-10T08:19:09;11.05;;;5.00;;
62696;SDS011;48761;42.680;23.312;2023-06-10T08:21:35;8.80;;;4.97;;
62696;SDS011;48761;42.680;23.312;2023-06-10T08:24:01;8.07;;;4.55;;
62696;SDS011;48761;42.680;23.312;2023-06-10T08:26:28;5.38;;;3.70;;
62696;SDS011;48761;42.680;23.312;2023-06-10T08:28:53;6.43;;;3.85;;
62696;SDS011;48761;42.680;23.312;2023-06-10T08:31:20;5.78;;;3.72;;
62696;SDS011;48761;42.680;23.312;2023-06-10T08:33:46;7.13;;;3.63;;
62696;SDS011;48761;42.680;23.312;2023-06-10T08:36:14;6.50;;;4.00;;
62696;SDS011;48761;42.680;23.312;2023-06-10T08:38:40;7.15;;;4.15;;
62696;SDS011;48761;42.680;23.312;2023-06-10T08:41:06;8.77;;;6.35;;
62696;SDS011;48761;42.680;23.312;2023-06-10T08:44:22;9.10;;;4.30;;
62696;SDS011;48761;42.680;23.312;2023-06-10T08:46:28;7.55;;;5.60;;
62696;SDS011;48761;42.680;23.312;2023-06-10T08:48:57;8.10;;;4.60;;
62696;SDS011;48761;42.680;23.312;2023-06-10T08:51:28;7.03;;;5.30;;
62696;SDS011;48761;42.680;23.312;2023-06-10T08:54:02;6.90;;;4.40;;
62696;SDS011;48761;42.680;23.312;2023-06-10T08:56:37;7.13;;;4.05;;
62696;SDS011;48761;42.680;23.312;2023-06-10T08:59:05;6.43;;;3.95;;
62696;SDS011;48761;42.680;23.312;2023-06-10T09:01:32;5.65;;;3.53;;
62696;SDS011;48761;42.680;23.312;2023-06-10T09:03:58;6.50;;;4.07;;
62696;SDS011;48761;42.680;23.312;2023-06-10T09:06:25;6.15;;;3.22;;
62696;SDS011;48761;42.680;23.312;2023-06-10T09:08:51;7.38;;;3.70;;
62696;SDS011;48761;42.680;23.312;2023-06-10T09:11:17;6.80;;;4.10;;
62696;SDS011;48761;42.680;23.312;2023-06-10T09:13:43;7.47;;;3.90;;
62696;SDS011;48761;42.680;23.312;2023-06-10T09:16:09;9.82;;;3.83;;
62696;SDS011;48761;42.680;23.312;2023-06-10T09:18:39;10.50;;;3.53;;
62696;SDS011;48761;42.680;23.312;2023-06-10T09:21:05;5.85;;;3.92;;
62696;SDS011;48761;42.680;23.312;2023-06-10T09:23:31;7.60;;;4.07;;
62696;SDS011;48761;42.680;23.312;2023-06-10T09:25:58;8.32;;;4.82;;
62696;SDS011;48761;42.680;23.312;2023-06-10T09:28:24;13.80;;;9.32;;
62696;SDS011;48761;42.680;23.312;2023-06-10T09:31:01;7.88;;;4.38;;
62696;SDS011;48761;42.680;23.312;2023-06-10T09:33:31;12.85;;;7.05;;
62696;SDS011;48761;42.680;23.312;2023-06-10T09:35:57;11.90;;;7.38;;
62696;SDS011;48761;42.680;23.312;2023-06-10T09:38:23;6.85;;;3.78;;
62696;SDS011;48761;42.680;23.312;2023-06-10T09:40:55;6.72;;;4.82;;
62696;SDS011;48761;42.680;23.312;2023-06-10T09:43:21;4.68;;;3.65;;
62696;SDS011;48761;42.680;23.312;2023-06-10T09:45:48;8.27;;;4.28;;
62696;SDS011;48761;42.680;23.312;2023-06-10T09:48:15;8.40;;;4.15;;
62696;SDS011;48761;42.680;23.312;2023-06-10T09:50:44;7.85;;;4.38;;
62696;SDS011;48761;42.680;23.312;2023-06-10T09:53:11;7.72;;;4.07;;
62696;SDS011;48761;42.680;23.312;2023-06-10T09:55:37;6.65;;;3.78;;
62696;SDS011;48761;42.680;23.312;2023-06-10T09:58:04;6.03;;;4.03;;
62696;SDS011;48761;42.680;23.312;2023-06-10T10:00:31;8.05;;;4.20;;
62696;SDS011;48761;42.680;23.312;2023-06-10T10:02:58;5.43;;;3.72;;
62696;SDS011;48761;42.680;23.312;2023-06-10T10:05:24;7.68;;;4.35;;
62696;SDS011;48761;42.680;23.312;2023-06-10T10:07:50;6.28;;;3.00;;
62696;SDS011;48761;42.680;23.312;2023-06-10T10:10:18;6.22;;;4.40;;
62696;SDS011;48761;42.680;23.312;2023-06-10T10:12:48;4.40;;;2.10;;
62696;SDS011;48761;42.680;23.312;2023-06-10T10:15:17;5.88;;;2.45;;
62696;SDS011;48761;42.680;23.312;2023-06-10T10:17:52;3.50;;;2.80;;
62696;SDS011;48761;42.680;23.312;2023-06-10T10:20:21;6.32;;;2.65;;
62696;SDS011;48761;42.680;23.312;2023-06-10T10:22:51;3.65;;;2.95;;
62696;SDS011;48761;42.680;23.312;2023-06-10T10:25:28;6.18;;;2.97;;
62696;SDS011;48761;42.680;23.312;2023-06-10T10:30:30;5.88;;;3.13;;
62696;SDS011;48761;42.680;23.312;2023-06-10T10:33:02;6.03;;;3.33;;
62696;SDS011;48761;42.680;23.312;2023-06-10T10:35:31;6.30;;;3.17;;
62696;SDS011;48761;42.680;23.312;2023-06-10T10:37:58;5.07;;;3.08;;
62696;SDS011;48761;42.680;23.312;2023-06-10T10:40:25;3.58;;;3.17;;
62696;SDS011;48761;42.680;23.312;2023-06-10T10:42:54;7.45;;;3.78;;
62696;SDS011;48761;42.680;23.312;2023-06-10T10:45:22;4.85;;;3.97;;
62696;SDS011;48761;42.680;23.312;2023-06-10T10:47:52;6.38;;;3.85;;
62696;SDS011;48761;42.680;23.312;2023-06-10T10:50:20;4.55;;;3.33;;
62696;SDS011;48761;42.680;23.312;2023-06-10T10:52:51;6.43;;;3.30;;
62696;SDS011;48761;42.680;23.312;2023-06-10T10:55:19;6.22;;;3.67;;
62696;SDS011;48761;42.680;23.312;2023-06-10T10:57:53;4.88;;;3.90;;
62696;SDS011;48761;42.680;23.312;2023-06-10T11:05:46;6.20;;;3.58;;
62696;SDS011;48761;42.680;23.312;2023-06-10T11:08:13;7.93;;;3.80;;
62696;SDS011;48761;42.680;23.312;2023-06-10T11:10:59;5.18;;;3.22;;
62696;SDS011;48761;42.680;23.312;2023-06-10T11:13:26;4.18;;;3.13;;
62696;SDS011;48761;42.680;23.312;2023-06-10T11:15:56;5.93;;;3.97;;
62696;SDS011;48761;42.680;23.312;2023-06-10T11:18:26;4.75;;;2.88;;
62696;SDS011;48761;42.680;23.312;2023-06-10T11:20:55;3.85;;;2.90;;
62696;SDS011;48761;42.680;23.312;2023-06-10T11:26:13;7.10;;;3.58;;
62696;SDS011;48761;42.680;23.312;2023-06-10T11:28:40;6.30;;;3.85;;
62696;SDS011;48761;42.680;23.312;2023-06-10T11:31:25;6.45;;;4.15;;
62696;SDS011;48761;42.680;23.312;2023-06-10T11:34:01;6.45;;;3.67;;
62696;SDS011;48761;42.680;23.312;2023-06-10T11:36:28;6.47;;;3.63;;
62696;SDS011;48761;42.680;23.312;2023-06-10T11:38:55;5.93;;;4.00;;
62696;SDS011;48761;42.680;23.312;2023-06-10T11:41:23;5.85;;;4.57;;
62696;SDS011;48761;42.680;23.312;2023-06-10T11:43:50;7.15;;;4.40;;
62696;SDS011;48761;42.680;23.312;2023-06-10T11:46:16;5.28;;;4.15;;
62696;SDS011;48761;42.680;23.312;2023-06-10T11:48:49;5.03;;;3.80;;
62696;SDS011;48761;42.680;23.312;2023-06-10T11:51:19;6.20;;;4.25;;
62696;SDS011;48761;42.680;23.312;2023-06-10T11:53:46;10.70;;;5.97;;
62696;SDS011;48761;42.680;23.312;2023-06-10T11:56:12;7.35;;;4.00;;
62696;SDS011;48761;42.680;23.312;2023-06-10T11:58:40;5.43;;;4.00;;
62696;SDS011;48761;42.680;23.312;2023-06-10T12:01:10;5.30;;;3.90;;
62696;SDS011;48761;42.680;23.312;2023-06-10T12:03:37;5.18;;;3.60;;
62696;SDS011;48761;42.680;23.312;2023-06-10T12:08:30;9.82;;;3.90;;
62696;SDS011;48761;42.680;23.312;2023-06-10T12:10:57;5.78;;;3.70;;
62696;SDS011;48761;42.680;23.312;2023-06-10T12:13:25;4.50;;;3.22;;
62696;SDS011;48761;42.680;23.312;2023-06-10T12:15:52;3.85;;;3.25;;
62696;SDS011;48761;42.680;23.312;2023-06-10T12:18:19;3.95;;;2.78;;
62696;SDS011;48761;42.680;23.312;2023-06-10T12:20:46;4.78;;;3.47;;
62696;SDS011;48761;42.680;23.312;2023-06-10T12:23:14;3.85;;;2.90;;
62696;SDS011;48761;42.680;23.312;2023-06-10T12:25:49;6.72;;;4.25;;
62696;SDS011;48761;42.680;23.312;2023-06-10T12:28:22;3.47;;;2.90;;
62696;SDS011;48761;42.680;23.312;2023-06-10T12:30:49;5.70;;;3.38;;
62696;SDS011;48761;42.680;23.312;2023-06-10T12:33:16;5.60;;;3.20;;
62696;SDS011;48761;42.680;23.312;2023-06-10T12:35:47;6.35;;;3.28;;
62696;SDS011;48761;42.680;23.312;2023-06-10T12:38:14;3.97;;;3.35;;
62696;SDS011;48761;42.680;23.312;2023-06-10T12:40:46;5.50;;;3.30;;
62696;SDS011;48761;42.680;23.312;2023-06-10T12:43:12;5.40;;;3.53;;
62696;SDS011;48761;42.680;23.312;2023-06-10T12:45:38;3.92;;;3.20;;
62696;SDS011;48761;42.680;23.312;2023-06-10T12:50:40;5.35;;;3.78;;
62696;SDS011;48761;42.680;23.312;2023-06-10T12:53:07;6.45;;;4.15;;
62696;SDS011;48761;42.680;23.312;2023-06-10T12:55:34;5.75;;;4.05;;
62696;SDS011;48761;42.680;23.312;2023-06-10T12:58:00;6.93;;;4.25;;
62696;SDS011;48761;42.680;23.312;2023-06-10T13:00:26;7.97;;;3.92;;
62696;SDS011;48761;42.680;23.312;2023-06-10T13:02:53;5.75;;;3.53;;
62696;SDS011;48761;42.680;23.312;2023-06-10T13:05:19;5.43;;;3.55;;
62696;SDS011;48761;42.680;23.312;2023-06-10T13:07:45;6.10;;;3.60;;
62696;SDS011;48761;42.680;23.312;2023-06-10T13:10:12;6.28;;;3.75;;
62696;SDS011;48761;42.680;23.312;2023-06-10T13:12:39;4.45;;;3.47;;
62696;SDS011;48761;42.680;23.312;2023-06-10T13:15:05;4.25;;;3.38;;
62696;SDS011;48761;42.680;23.312;2023-06-10T13:17:32;4.82;;;3.13;;
62696;SDS011;48761;42.680;23.312;2023-06-10T13:19:58;5.68;;;3.67;;
62696;SDS011;48761;42.680;23.312;2023-06-10T13:22:24;6.68;;;3.60;;
62696;SDS011;48761;42.680;23.312;2023-06-10T13:24:50;9.02;;;5.85;;
62696;SDS011;48761;42.680;23.312;2023-06-10T13:27:16;7.47;;;4.30;;
62696;SDS011;48761;42.680;23.312;2023-06-10T13:29:42;8.98;;;4.18;;
62696;SDS011;48761;42.680;23.312;2023-06-10T13:32:08;11.50;;;4.38;;
62696;SDS011;48761;42.680;23.312;2023-06-10T13:34:35;7.15;;;4.53;;
62696;SDS011;48761;42.680;23.312;2023-06-10T13:37:01;10.98;;;4.75;;
62696;SDS011;48761;42.680;23.312;2023-06-10T13:39:27;8.52;;;4.03;;
62696;SDS011;48761;42.680;23.312;2023-06-10T13:41:53;6.97;;;4.75;;
62696;SDS011;48761;42.680;23.312;2023-06-10T13:44:19;8.18;;;4.20;;
62696;SDS011;48761;42.680;23.312;2023-06-10T13:46:45;10.80;;;5.10;;
62696;SDS011;48761;42.680;23.312;2023-06-10T13:49:11;10.93;;;5.15;;
62696;SDS011;48761;42.680;23.312;2023-06-10T13:51:37;7.75;;;5.00;;
62696;SDS011;48761;42.680;23.312;2023-06-10T13:54:03;9.38;;;4.90;;
62696;SDS011;48761;42.680;23.312;2023-06-10T13:56:28;9.60;;;5.10;;
62696;SDS011;48761;42.680;23.312;2023-06-10T13:58:54;11.35;;;4.90;;
62696;SDS011;48761;42.680;23.312;2023-06-10T14:01:20;10.65;;;4.63;;
62696;SDS011;48761;42.680;23.312;2023-06-10T14:03:46;10.95;;;5.05;;
62696;SDS011;48761;42.680;23.312;2023-06-10T14:06:12;8.20;;;5.28;;
62696;SDS011;48761;42.680;23.312;2023-06-10T14:08:38;6.30;;;4.22;;
62696;SDS011;48761;42.680;23.312;2023-06-10T14:11:04;7.00;;;4.30;;
62696;SDS011;48761;42.680;23.312;2023-06-10T14:13:30;5.55;;;4.10;;
62696;SDS011;48761;42.680;23.312;2023-06-10T14:15:56;7.78;;;4.35;;
62696;SDS011;48761;42.680;23.312;2023-06-10T14:18:22;7.47;;;3.88;;
62696;SDS011;48761;42.680;23.312;2023-06-10T14:20:48;8.10;;;4.22;;
62696;SDS011;48761;42.680;23.312;2023-06-10T14:23:14;5.93;;;4.13;;
62696;SDS011;48761;42.680;23.312;2023-06-10T14:25:40;6.15;;;4.30;;
62696;SDS011;48761;42.680;23.312;2023-06-10T14:28:05;7.80;;;4.30;;
62696;SDS011;48761;42.680;23.312;2023-06-10T14:30:31;6.47;;;4.63;;
62696;SDS011;48761;42.680;23.312;2023-06-10T14:32:57;6.03;;;4.18;;
62696;SDS011;48761;42.680;23.312;2023-06-10T14:35:23;6.55;;;3.80;;
62696;SDS011;48761;42.680;23.312;2023-06-10T14:37:49;9.23;;;4.60;;
62696;SDS011;48761;42.680;23.312;2023-06-10T14:40:15;7.32;;;4.50;;
62696;SDS011;48761;42.680;23.312;2023-06-10T14:42:41;9.23;;;4.70;;
62696;SDS011;48761;42.680;23.312;2023-06-10T14:45:07;6.43;;;4.43;;